createdAt,value
2018-03-28T00:00:38.384Z,0
2018-03-28T00:01:18.852Z,0
2018-03-28T00:01:59.357Z,0
2018-03-28T00:02:39.830Z,0
2018-03-28T00:03:20.309Z,0
2018-03-28T00:04:00.790Z,0
2018-03-28T00:04:41.284Z,0
2018-03-28T00:05:21.745Z,0
2018-03-28T00:06:02.300Z,0
2018-03-28T00:06:42.747Z,0
2018-03-28T00:07:23.271Z,0
2018-03-28T00:08:03.741Z,0
2018-03-28T00:08:44.248Z,0
2018-03-28T00:09:24.739Z,0
2018-03-28T00:10:05.198Z,0
2018-03-28T00:10:45.715Z,0
2018-03-28T00:11:26.207Z,0
2018-03-28T00:12:06.723Z,0
2018-03-28T00:12:47.197Z,0
2018-03-28T00:13:27.683Z,0
2018-03-28T00:14:08.178Z,0
2018-03-28T00:14:48.668Z,0
2018-03-28T00:15:29.214Z,0
2018-03-28T00:16:09.709Z,0
2018-03-28T00:16:50.212Z,0
2018-03-28T00:17:30.663Z,0
2018-03-28T00:18:11.212Z,0
2018-03-28T00:18:51.753Z,0
2018-03-28T00:19:32.285Z,0
2018-03-28T00:20:12.730Z,0
2018-03-28T00:20:53.228Z,0
2018-03-28T00:21:33.717Z,0
2018-03-28T00:22:14.204Z,0
2018-03-28T00:22:54.765Z,0
2018-03-28T00:23:35.266Z,0
2018-03-28T00:24:15.801Z,0
2018-03-28T00:24:56.239Z,0
2018-03-28T00:25:36.709Z,0
2018-03-28T00:26:17.265Z,0
2018-03-28T00:26:57.694Z,0
2018-03-28T00:27:38.232Z,0
2018-03-28T00:28:18.718Z,0
2018-03-28T00:28:59.228Z,0
2018-03-28T00:29:39.728Z,0
2018-03-28T00:30:20.199Z,0
2018-03-28T00:31:00.728Z,0
2018-03-28T00:31:41.212Z,0
2018-03-28T00:32:21.665Z,0
2018-03-28T00:33:02.251Z,0
2018-03-28T00:33:42.672Z,0
2018-03-28T00:34:23.217Z,0
2018-03-28T00:35:03.722Z,0
2018-03-28T00:35:44.198Z,0
2018-03-28T00:36:24.684Z,0
2018-03-28T00:37:05.184Z,0
2018-03-28T00:37:45.641Z,0
2018-03-28T00:38:26.120Z,0
2018-03-28T00:39:06.652Z,0
2018-03-28T00:39:47.179Z,0
2018-03-28T00:40:27.658Z,0
2018-03-28T00:41:08.114Z,0
2018-03-28T00:41:48.617Z,0
2018-03-28T00:42:29.144Z,0
2018-03-28T00:43:09.571Z,0
2018-03-28T00:43:50.113Z,0
2018-03-28T00:44:30.584Z,0
2018-03-28T00:45:11.026Z,0
2018-03-28T00:45:51.524Z,0
2018-03-28T00:46:32.011Z,0
2018-03-28T00:47:12.505Z,0
2018-03-28T00:47:52.977Z,0
2018-03-28T00:48:33.447Z,0
2018-03-28T00:49:13.963Z,0
2018-03-28T00:49:54.488Z,0
2018-03-28T00:50:34.966Z,0
2018-03-28T00:51:15.454Z,0
2018-03-28T00:51:55.955Z,0
2018-03-28T00:52:36.419Z,0
2018-03-28T00:53:16.880Z,0
2018-03-28T00:53:57.381Z,0
2018-03-28T00:54:37.874Z,0
2018-03-28T00:55:18.389Z,0
2018-03-28T00:55:58.911Z,0
2018-03-28T00:56:39.404Z,0
2018-03-28T00:57:19.905Z,0
2018-03-28T00:58:00.404Z,0
2018-03-28T00:58:40.895Z,0
2018-03-28T00:59:21.376Z,0
2018-03-28T01:00:01.842Z,0
2018-03-28T01:00:42.315Z,0
2018-03-28T01:01:22.820Z,0
2018-03-28T01:02:03.320Z,0
2018-03-28T01:02:43.820Z,0
2018-03-28T01:03:24.314Z,0
2018-03-28T01:04:04.825Z,0
2018-03-28T01:04:45.282Z,0
2018-03-28T01:05:25.802Z,0
2018-03-28T01:06:06.327Z,0
2018-03-28T01:06:46.747Z,0
2018-03-28T01:07:27.201Z,0
2018-03-28T01:08:07.716Z,0
2018-03-28T01:08:48.196Z,0
2018-03-28T01:09:28.746Z,0
2018-03-28T01:10:09.204Z,0
2018-03-28T01:10:49.740Z,0
2018-03-28T01:11:30.261Z,0
2018-03-28T01:12:10.759Z,0
2018-03-28T01:12:51.211Z,0
2018-03-28T01:13:31.749Z,0
2018-03-28T01:14:12.218Z,0
2018-03-28T01:14:52.724Z,0
2018-03-28T01:15:33.219Z,0
2018-03-28T01:16:13.729Z,0
2018-03-28T01:16:54.204Z,0
2018-03-28T01:17:34.663Z,0
2018-03-28T01:18:15.181Z,0
2018-03-28T01:18:55.670Z,0
2018-03-28T01:19:36.200Z,0
2018-03-28T01:20:16.692Z,0
2018-03-28T01:20:57.148Z,0
2018-03-28T01:21:37.639Z,0
2018-03-28T01:22:18.156Z,0
2018-03-28T01:22:58.656Z,0
2018-03-28T01:23:39.154Z,0
2018-03-28T01:24:19.631Z,0
2018-03-28T01:25:00.141Z,0
2018-03-28T01:25:40.641Z,0
2018-03-28T01:26:21.127Z,0
2018-03-28T01:27:01.624Z,0
2018-03-28T01:27:42.103Z,0
2018-03-28T01:28:22.581Z,0
2018-03-28T01:29:03.072Z,0
2018-03-28T01:29:43.563Z,0
2018-03-28T01:30:24.056Z,0
2018-03-28T01:31:04.537Z,0
2018-03-28T01:31:45.044Z,0
2018-03-28T01:32:25.537Z,0
2018-03-28T01:33:06.002Z,0
2018-03-28T01:33:46.502Z,0
2018-03-28T01:34:26.980Z,0
2018-03-28T01:35:07.460Z,0
2018-03-28T01:35:47.963Z,0
2018-03-28T01:36:28.435Z,0
2018-03-28T01:37:08.966Z,0
2018-03-28T01:37:49.376Z,0
2018-03-28T01:38:29.887Z,0
2018-03-28T01:39:10.362Z,0
2018-03-28T01:39:50.853Z,0
2018-03-28T01:40:31.352Z,0
2018-03-28T01:41:11.836Z,0
2018-03-28T01:41:52.334Z,0
2018-03-28T01:42:32.867Z,0
2018-03-28T01:43:13.374Z,0
2018-03-28T01:43:53.900Z,0
2018-03-28T01:44:34.380Z,0
2018-03-28T01:45:14.925Z,0
2018-03-28T01:45:55.340Z,0
2018-03-28T01:46:35.832Z,0
2018-03-28T01:47:16.367Z,0
2018-03-28T01:47:56.832Z,0
2018-03-28T01:48:37.293Z,0
2018-03-28T01:49:17.782Z,0
2018-03-28T01:49:58.274Z,0
2018-03-28T01:50:38.756Z,0
2018-03-28T01:51:19.343Z,0
2018-03-28T01:51:59.744Z,0
2018-03-28T01:52:40.223Z,0
2018-03-28T01:53:20.670Z,0
2018-03-28T01:54:01.140Z,0
2018-03-28T01:54:41.646Z,0
2018-03-28T01:55:22.136Z,0
2018-03-28T01:56:02.618Z,0
2018-03-28T01:56:43.129Z,0
2018-03-28T01:57:23.630Z,0
2018-03-28T01:58:04.120Z,0
2018-03-28T01:58:44.572Z,0
2018-03-28T01:59:25.065Z,0
2018-03-28T02:00:05.591Z,0
2018-03-28T02:00:46.065Z,0
2018-03-28T02:01:26.704Z,0
2018-03-28T02:02:07.218Z,0
2018-03-28T02:02:47.708Z,0
2018-03-28T02:03:28.212Z,0
2018-03-28T02:04:08.720Z,0
2018-03-28T02:04:49.187Z,0
2018-03-28T02:05:29.729Z,0
2018-03-28T02:06:10.212Z,0
2018-03-28T02:06:50.692Z,0
2018-03-28T02:07:31.240Z,0
2018-03-28T02:08:11.735Z,0
2018-03-28T02:08:52.183Z,0
2018-03-28T02:09:32.662Z,0
2018-03-28T02:10:13.172Z,0
2018-03-28T02:10:53.646Z,0
2018-03-28T02:11:34.143Z,0
2018-03-28T02:12:14.646Z,0
2018-03-28T02:12:55.107Z,0
2018-03-28T02:13:35.612Z,0
2018-03-28T02:14:16.064Z,0
2018-03-28T02:14:56.545Z,0
2018-03-28T02:15:37.024Z,0
2018-03-28T02:16:17.511Z,0
2018-03-28T02:16:58.017Z,0
2018-03-28T02:17:38.487Z,0
2018-03-28T02:18:18.990Z,0
2018-03-28T02:18:59.528Z,0
2018-03-28T02:19:39.976Z,0
2018-03-28T02:20:20.484Z,0
2018-03-28T02:21:00.943Z,0
2018-03-28T02:21:41.437Z,0
2018-03-28T02:22:21.886Z,0
2018-03-28T02:23:02.432Z,0
2018-03-28T02:23:42.874Z,0
2018-03-28T02:24:23.379Z,0
2018-03-28T02:25:03.876Z,0
2018-03-28T02:25:44.336Z,0
2018-03-28T02:26:24.832Z,0
2018-03-28T02:27:05.347Z,0
2018-03-28T02:27:45.852Z,0
2018-03-28T02:28:26.333Z,0
2018-03-28T02:29:06.826Z,0
2018-03-28T02:29:47.321Z,0
2018-03-28T02:32:27.830Z,0
2018-03-28T02:33:08.360Z,0
2018-03-28T02:33:48.871Z,0
2018-03-28T02:34:29.405Z,0
2018-03-28T02:35:09.922Z,0
2018-03-28T02:35:50.422Z,0
2018-03-28T02:36:30.945Z,0
2018-03-28T02:37:11.477Z,0
2018-03-28T02:37:51.985Z,0
2018-03-28T02:38:32.489Z,0
2018-03-28T02:39:13.040Z,0
2018-03-28T02:39:53.518Z,0
2018-03-28T02:40:34.008Z,0
2018-03-28T02:41:14.538Z,0
2018-03-28T02:41:55.055Z,0
2018-03-28T02:42:35.568Z,0
2018-03-28T02:43:16.077Z,0
2018-03-28T02:43:56.605Z,0
2018-03-28T02:44:37.123Z,0
2018-03-28T02:45:17.629Z,0
2018-03-28T02:45:58.146Z,0
2018-03-28T02:46:38.676Z,0
2018-03-28T02:47:19.220Z,0
2018-03-28T02:47:59.722Z,0
2018-03-28T02:48:40.243Z,0
2018-03-28T02:49:20.752Z,0
2018-03-28T02:50:01.274Z,0
2018-03-28T02:50:41.776Z,0
2018-03-28T02:51:22.289Z,0
2018-03-28T02:52:02.812Z,0
2018-03-28T02:52:43.338Z,0
2018-03-28T02:53:23.861Z,0
2018-03-28T02:54:04.390Z,0
2018-03-28T02:54:44.891Z,0
2018-03-28T02:55:25.417Z,0
2018-03-28T02:56:05.926Z,0
2018-03-28T02:56:46.423Z,0
2018-03-28T02:57:26.934Z,0
2018-03-28T02:58:07.467Z,0
2018-03-28T02:58:47.983Z,0
2018-03-28T02:59:28.500Z,0
2018-03-28T03:00:09.055Z,0
2018-03-28T03:00:49.565Z,0
2018-03-28T03:01:30.106Z,0
2018-03-28T03:02:10.741Z,0
2018-03-28T03:02:51.196Z,0
2018-03-28T03:03:31.719Z,0
2018-03-28T03:04:12.249Z,0
2018-03-28T03:04:52.760Z,0
2018-03-28T03:05:33.280Z,0
2018-03-28T03:06:13.812Z,0
2018-03-28T03:06:54.337Z,0
2018-03-28T03:07:34.861Z,0
2018-03-28T03:08:15.381Z,0
2018-03-28T03:08:55.897Z,0
2018-03-28T03:09:36.417Z,0
2018-03-28T03:10:16.931Z,0
2018-03-28T03:10:57.449Z,0
2018-03-28T03:11:37.951Z,0
2018-03-28T03:12:18.468Z,0
2018-03-28T03:12:58.978Z,0
2018-03-28T03:13:39.530Z,0
2018-03-28T03:14:20.012Z,0
2018-03-28T03:15:00.532Z,0
2018-03-28T03:15:41.061Z,0
2018-03-28T03:16:21.573Z,0
2018-03-28T03:17:02.125Z,0
2018-03-28T03:17:42.606Z,0
2018-03-28T03:18:23.122Z,0
2018-03-28T03:19:03.639Z,0
2018-03-28T03:19:44.160Z,0
2018-03-28T03:20:24.720Z,0
2018-03-28T03:21:05.173Z,0
2018-03-28T03:21:45.682Z,0
2018-03-28T03:22:26.200Z,0
2018-03-28T03:23:06.720Z,0
2018-03-28T03:23:47.232Z,0
2018-03-28T03:24:27.740Z,0
2018-03-28T03:25:08.252Z,0
2018-03-28T03:25:48.767Z,0
2018-03-28T03:26:29.294Z,0
2018-03-28T03:27:09.793Z,0
2018-03-28T03:27:50.309Z,0
2018-03-28T03:28:30.826Z,0
2018-03-28T03:29:11.341Z,0
2018-03-28T03:29:51.866Z,0
2018-03-28T03:30:32.388Z,0
2018-03-28T03:31:12.902Z,0
2018-03-28T03:31:53.412Z,0
2018-03-28T03:32:33.926Z,0
2018-03-28T03:33:14.440Z,0
2018-03-28T03:33:54.960Z,0
2018-03-28T03:34:35.509Z,0
2018-03-28T03:35:16.046Z,0
2018-03-28T03:35:56.569Z,0
2018-03-28T03:36:37.092Z,0
2018-03-28T03:37:17.605Z,0
2018-03-28T03:37:58.108Z,0
2018-03-28T03:38:38.622Z,0
2018-03-28T03:39:19.142Z,0
2018-03-28T03:39:59.658Z,0
2018-03-28T03:40:40.247Z,0
2018-03-28T03:41:20.798Z,0
2018-03-28T03:42:01.307Z,0
2018-03-28T03:42:41.833Z,0
2018-03-28T03:43:22.348Z,0
2018-03-28T03:44:02.855Z,0
2018-03-28T03:44:43.370Z,0
2018-03-28T03:45:23.875Z,0
2018-03-28T03:46:04.397Z,0
2018-03-28T03:46:44.918Z,0
2018-03-28T03:47:25.451Z,0
2018-03-28T03:48:06.010Z,0
2018-03-28T03:48:46.522Z,0
2018-03-28T03:49:27.125Z,0
2018-03-28T03:50:07.632Z,0
2018-03-28T03:50:48.144Z,0
2018-03-28T03:51:28.722Z,0
2018-03-28T03:52:09.149Z,0
2018-03-28T03:52:49.677Z,0
2018-03-28T03:53:30.194Z,0
2018-03-28T03:54:10.716Z,0
2018-03-28T03:54:51.213Z,0
2018-03-28T03:55:31.729Z,0
2018-03-28T03:56:12.257Z,0
2018-03-28T03:56:52.796Z,0
2018-03-28T03:57:33.303Z,0
2018-03-28T03:58:13.817Z,0
2018-03-28T03:58:54.329Z,0
2018-03-28T03:59:34.860Z,0
2018-03-28T04:00:15.361Z,0
2018-03-28T04:00:55.873Z,0
2018-03-28T04:01:36.388Z,0
2018-03-28T04:02:16.908Z,0
2018-03-28T04:02:57.431Z,0
2018-03-28T04:03:37.946Z,0
2018-03-28T04:04:18.473Z,0
2018-03-28T04:04:58.988Z,0
2018-03-28T04:05:39.505Z,0
2018-03-28T04:06:20.012Z,0
2018-03-28T04:07:00.554Z,0
2018-03-28T04:07:41.072Z,0
2018-03-28T04:08:21.582Z,0
2018-03-28T04:09:02.106Z,0
2018-03-28T04:09:42.652Z,0
2018-03-28T04:10:23.178Z,0
2018-03-28T04:11:03.709Z,0
2018-03-28T04:11:44.215Z,0
2018-03-28T04:12:24.742Z,0
2018-03-28T04:13:05.263Z,0
2018-03-28T04:13:45.769Z,0
2018-03-28T04:14:26.280Z,0
2018-03-28T04:15:06.831Z,0
2018-03-28T04:15:47.328Z,0
2018-03-28T04:16:27.840Z,0
2018-03-28T04:17:08.355Z,0
2018-03-28T04:17:48.868Z,0
2018-03-28T04:18:29.379Z,0
2018-03-28T04:19:09.898Z,0
2018-03-28T04:19:50.408Z,0
2018-03-28T04:20:30.923Z,0
2018-03-28T04:21:11.446Z,0
2018-03-28T04:21:51.967Z,0
2018-03-28T04:22:32.496Z,0
2018-03-28T04:23:13.012Z,0
2018-03-28T04:23:53.548Z,0
2018-03-28T04:24:34.058Z,0
2018-03-28T04:25:14.580Z,0
2018-03-28T04:25:55.098Z,0
2018-03-28T04:26:35.617Z,0
2018-03-28T04:27:16.137Z,0
2018-03-28T04:27:56.645Z,0
2018-03-28T04:28:37.189Z,0
2018-03-28T04:29:17.699Z,0
2018-03-28T04:29:58.290Z,0
2018-03-28T04:30:38.758Z,0
2018-03-28T04:31:19.271Z,0
2018-03-28T04:31:59.786Z,0
2018-03-28T04:32:40.299Z,0
2018-03-28T04:33:20.852Z,0
2018-03-28T04:34:01.369Z,0
2018-03-28T04:34:41.885Z,0
2018-03-28T04:35:22.404Z,0
2018-03-28T04:36:02.920Z,0
2018-03-28T04:36:43.447Z,0
2018-03-28T04:37:23.961Z,0
2018-03-28T04:38:04.493Z,0
2018-03-28T04:38:45.014Z,0
2018-03-28T04:39:25.520Z,0
2018-03-28T04:40:06.047Z,0
2018-03-28T04:40:46.582Z,0
2018-03-28T04:41:27.088Z,0
2018-03-28T04:42:07.627Z,0
2018-03-28T04:42:48.135Z,0
2018-03-28T04:43:28.647Z,0
2018-03-28T04:44:09.187Z,0
2018-03-28T04:44:49.696Z,0
2018-03-28T04:45:30.208Z,0
2018-03-28T04:46:10.729Z,0
2018-03-28T04:46:51.249Z,0
2018-03-28T04:47:31.767Z,0
2018-03-28T04:48:12.287Z,0
2018-03-28T04:48:52.810Z,0
2018-03-28T04:49:33.324Z,0
2018-03-28T04:50:13.839Z,0
2018-03-28T04:50:54.354Z,0
2018-03-28T04:51:34.876Z,0
2018-03-28T04:52:15.382Z,0
2018-03-28T04:52:55.897Z,0
2018-03-28T04:53:36.414Z,0
2018-03-28T04:54:16.947Z,0
2018-03-28T04:54:57.466Z,0
2018-03-28T04:55:37.997Z,0
2018-03-28T04:56:18.569Z,0
2018-03-28T04:56:59.055Z,0
2018-03-28T04:57:39.578Z,0
2018-03-28T04:58:20.099Z,0
2018-03-28T04:59:00.603Z,0
2018-03-28T04:59:41.113Z,0
2018-03-28T05:00:21.691Z,0
2018-03-28T05:01:02.237Z,0
2018-03-28T05:01:42.757Z,0
2018-03-28T05:02:23.279Z,0
2018-03-28T05:03:03.823Z,0
2018-03-28T05:03:44.335Z,0
2018-03-28T05:04:24.858Z,0
2018-03-28T05:05:05.378Z,0
2018-03-28T05:05:45.899Z,0
2018-03-28T05:06:26.475Z,0
2018-03-28T05:07:06.993Z,0
2018-03-28T05:07:47.492Z,0
2018-03-28T05:08:28.028Z,0
2018-03-28T05:09:08.544Z,0
2018-03-28T05:09:49.051Z,0
2018-03-28T05:10:29.594Z,0
2018-03-28T05:11:10.069Z,0
2018-03-28T05:11:50.599Z,0
2018-03-28T05:12:31.099Z,0
2018-03-28T05:13:11.614Z,0
2018-03-28T05:13:52.121Z,0
2018-03-28T05:14:32.633Z,0
2018-03-28T05:15:13.141Z,0
2018-03-28T05:15:53.674Z,0
2018-03-28T05:16:34.192Z,0
2018-03-28T05:17:14.749Z,0
2018-03-28T05:17:55.271Z,0
2018-03-28T05:18:35.790Z,0
2018-03-28T05:19:16.306Z,0
2018-03-28T05:19:56.830Z,0
2018-03-28T05:20:37.330Z,0
2018-03-28T05:21:17.843Z,0
2018-03-28T05:21:58.411Z,0
2018-03-28T05:22:38.943Z,0
2018-03-28T05:23:19.457Z,0
2018-03-28T05:24:00.026Z,0
2018-03-28T05:26:13.299Z,0
2018-03-28T05:26:53.822Z,0
2018-03-28T05:27:34.356Z,0
2018-03-28T05:28:14.917Z,0
2018-03-28T05:28:55.424Z,0
2018-03-28T05:29:35.956Z,0
2018-03-28T05:30:16.456Z,0
2018-03-28T05:30:56.954Z,0
2018-03-28T05:31:37.488Z,0
2018-03-28T05:32:18.023Z,0
2018-03-28T05:32:58.619Z,0
2018-03-28T05:33:39.136Z,0
2018-03-28T05:34:19.661Z,0
2018-03-28T05:35:00.769Z,5
2018-03-28T05:35:41.283Z,5
2018-03-28T05:36:21.811Z,5
2018-03-28T05:37:02.330Z,5
2018-03-28T05:37:42.832Z,5
2018-03-28T05:38:23.366Z,5
2018-03-28T05:39:03.861Z,5
2018-03-28T05:39:44.416Z,5
2018-03-28T05:40:24.960Z,5
2018-03-28T05:41:05.399Z,5
2018-03-28T05:41:45.905Z,5
2018-03-28T05:42:26.412Z,5
2018-03-28T05:43:06.933Z,5
2018-03-28T05:43:47.457Z,5
2018-03-28T05:44:27.984Z,5
2018-03-28T05:45:08.509Z,5
2018-03-28T05:45:49.029Z,5
2018-03-28T05:46:29.596Z,5
2018-03-28T05:47:10.267Z,5
2018-03-28T05:47:50.834Z,5
2018-03-28T05:48:31.552Z,5
2018-03-28T05:49:12.029Z,5
2018-03-28T05:49:52.704Z,5
2018-03-28T05:50:33.209Z,10
2018-03-28T05:51:13.619Z,10
2018-03-28T05:51:54.130Z,10
2018-03-28T05:52:34.632Z,5
2018-03-28T05:53:15.160Z,5
2018-03-28T05:53:55.691Z,5
2018-03-28T05:54:36.191Z,10
2018-03-28T05:55:16.906Z,10
2018-03-28T05:55:58.842Z,10
2018-03-28T05:56:39.141Z,10
2018-03-28T05:57:19.647Z,10
2018-03-28T05:58:00.151Z,10
2018-03-28T05:58:40.652Z,10
2018-03-28T05:59:21.133Z,10
2018-03-28T06:00:01.622Z,10
2018-03-28T06:00:42.141Z,10
2018-03-28T06:01:22.577Z,10
2018-03-28T06:02:03.090Z,10
2018-03-28T06:02:43.562Z,10
2018-03-28T06:03:24.108Z,15
2018-03-28T06:04:04.596Z,15
2018-03-28T06:04:45.068Z,15
2018-03-28T06:05:25.539Z,15
2018-03-28T06:06:06.046Z,15
2018-03-28T06:06:46.538Z,15
2018-03-28T06:07:27.036Z,15
2018-03-28T06:08:07.506Z,15
2018-03-28T06:08:48.056Z,15
2018-03-28T06:09:28.520Z,15
2018-03-28T06:10:08.993Z,15
2018-03-28T06:10:49.457Z,20
2018-03-28T06:11:29.967Z,25
2018-03-28T06:12:10.514Z,25
2018-03-28T06:12:50.937Z,30
2018-03-28T06:13:31.509Z,35
2018-03-28T06:14:11.978Z,35
2018-03-28T06:14:52.484Z,40
2018-03-28T06:15:32.916Z,35
2018-03-28T06:16:13.411Z,35
2018-03-28T06:16:53.920Z,40
2018-03-28T06:17:34.379Z,45
2018-03-28T06:18:14.879Z,55
2018-03-28T06:18:55.343Z,55
2018-03-28T06:19:35.882Z,55
2018-03-28T06:20:16.484Z,60
2018-03-28T06:20:56.976Z,60
2018-03-28T06:21:37.517Z,65
2018-03-28T06:22:18.024Z,75
2018-03-28T06:22:58.567Z,80
2018-03-28T06:23:39.026Z,85
2018-03-28T06:24:19.534Z,85
2018-03-28T06:25:00.037Z,85
2018-03-28T06:25:40.547Z,95
2018-03-28T06:26:21.014Z,95
2018-03-28T06:27:01.521Z,95
2018-03-28T06:27:42.036Z,100
2018-03-28T06:28:22.566Z,100
2018-03-28T06:29:03.068Z,100
2018-03-28T06:29:43.578Z,105
2018-03-28T06:30:24.096Z,100
2018-03-28T06:31:04.635Z,95
2018-03-28T06:31:45.118Z,90
2018-03-28T06:32:25.644Z,85
2018-03-28T06:33:06.166Z,85
2018-03-28T06:33:46.684Z,80
2018-03-28T06:34:27.194Z,80
2018-03-28T06:35:07.707Z,75
2018-03-28T06:35:48.250Z,75
2018-03-28T06:36:28.757Z,75
2018-03-28T06:37:09.264Z,70
2018-03-28T06:37:49.782Z,70
2018-03-28T06:38:30.295Z,75
2018-03-28T06:39:10.819Z,70
2018-03-28T06:39:51.322Z,70
2018-03-28T06:40:31.841Z,70
2018-03-28T06:41:12.347Z,75
2018-03-28T06:41:52.840Z,75
2018-03-28T06:42:33.338Z,80
2018-03-28T06:43:13.845Z,85
2018-03-28T06:43:54.331Z,90
2018-03-28T06:44:34.801Z,95
2018-03-28T06:45:15.296Z,105
2018-03-28T06:45:55.823Z,115
2018-03-28T06:46:36.293Z,125
2018-03-28T06:47:16.904Z,135
2018-03-28T06:47:57.394Z,140
2018-03-28T06:48:37.900Z,135
2018-03-28T06:49:18.402Z,140
2018-03-28T06:49:58.908Z,140
2018-03-28T06:50:39.485Z,145
2018-03-28T06:51:19.974Z,150
2018-03-28T06:52:00.474Z,155
2018-03-28T06:52:40.990Z,140
2018-03-28T06:53:21.511Z,125
2018-03-28T06:54:02.007Z,120
2018-03-28T06:54:42.497Z,120
2018-03-28T06:55:23.079Z,120
2018-03-28T06:56:03.646Z,115
2018-03-28T06:56:44.125Z,115
2018-03-28T06:57:24.617Z,115
2018-03-28T06:58:05.156Z,110
2018-03-28T06:58:45.592Z,110
2018-03-28T06:59:26.103Z,105
2018-03-28T07:00:06.592Z,100
2018-03-28T07:00:47.085Z,95
2018-03-28T07:01:27.574Z,95
2018-03-28T07:02:08.104Z,90
2018-03-28T07:02:48.553Z,85
2018-03-28T07:03:29.043Z,80
2018-03-28T07:04:09.570Z,75
2018-03-28T07:04:50.025Z,65
2018-03-28T07:05:30.514Z,65
2018-03-28T07:06:10.986Z,65
2018-03-28T07:06:51.512Z,65
2018-03-28T07:07:32.017Z,70
2018-03-28T07:08:12.549Z,75
2018-03-28T07:08:53.071Z,80
2018-03-28T07:09:33.618Z,85
2018-03-28T07:10:14.119Z,85
2018-03-28T07:10:54.616Z,90
2018-03-28T07:11:35.131Z,95
2018-03-28T07:12:15.590Z,105
2018-03-28T07:12:56.286Z,110
2018-03-28T07:13:36.770Z,115
2018-03-28T07:14:17.278Z,115
2018-03-28T07:14:57.738Z,110
2018-03-28T07:15:38.238Z,110
2018-03-28T07:16:18.741Z,105
2018-03-28T07:16:59.291Z,105
2018-03-28T07:17:39.762Z,105
2018-03-28T07:18:20.287Z,95
2018-03-28T07:19:00.765Z,90
2018-03-28T07:19:41.254Z,95
2018-03-28T07:20:21.726Z,95
2018-03-28T07:21:02.218Z,100
2018-03-28T07:21:42.734Z,105
2018-03-28T07:22:23.258Z,110
2018-03-28T07:23:03.736Z,105
2018-03-28T07:23:44.283Z,110
2018-03-28T07:24:24.826Z,110
2018-03-28T07:25:05.376Z,115
2018-03-28T07:25:45.815Z,125
2018-03-28T07:26:26.308Z,130
2018-03-28T07:27:06.955Z,130
2018-03-28T07:27:47.505Z,135
2018-03-28T07:28:27.930Z,140
2018-03-28T07:29:08.525Z,145
2018-03-28T07:29:49.017Z,150
2018-03-28T07:30:29.550Z,145
2018-03-28T07:31:10.063Z,135
2018-03-28T07:31:50.601Z,110
2018-03-28T07:32:31.228Z,120
2018-03-28T07:33:11.737Z,125
2018-03-28T07:33:52.307Z,135
2018-03-28T07:34:32.773Z,130
2018-03-28T07:35:13.276Z,120
2018-03-28T07:35:53.836Z,120
2018-03-28T07:36:34.303Z,125
2018-03-28T07:37:14.769Z,135
2018-03-28T07:37:55.274Z,140
2018-03-28T07:38:35.731Z,145
2018-03-28T07:39:16.279Z,160
2018-03-28T07:39:56.815Z,160
2018-03-28T07:40:37.334Z,165
2018-03-28T07:41:17.842Z,170
2018-03-28T07:41:58.339Z,175
2018-03-28T07:42:38.870Z,185
2018-03-28T07:43:19.378Z,190
2018-03-28T07:44:00.065Z,195
2018-03-28T07:44:40.571Z,195
2018-03-28T07:45:21.057Z,205
2018-03-28T07:46:01.592Z,195
2018-03-28T07:46:42.124Z,195
2018-03-28T07:47:22.560Z,195
2018-03-28T07:48:03.088Z,190
2018-03-28T07:48:43.579Z,190
2018-03-28T07:49:24.013Z,190
2018-03-28T07:50:04.490Z,190
2018-03-28T07:50:45.004Z,185
2018-03-28T07:51:25.547Z,175
2018-03-28T07:52:06.065Z,165
2018-03-28T07:52:46.583Z,165
2018-03-28T07:53:27.006Z,165
2018-03-28T07:54:07.530Z,165
2018-03-28T07:54:48.003Z,165
2018-03-28T07:55:28.515Z,165
2018-03-28T07:56:09.007Z,165
2018-03-28T07:56:49.604Z,165
2018-03-28T07:57:30.210Z,165
2018-03-28T07:58:10.664Z,170
2018-03-28T07:58:51.354Z,160
2018-03-28T07:59:31.806Z,160
2018-03-28T08:00:12.310Z,165
2018-03-28T08:00:52.786Z,170
2018-03-28T08:01:33.261Z,170
2018-03-28T08:02:13.760Z,170
2018-03-28T08:02:54.357Z,165
2018-03-28T08:03:34.820Z,165
2018-03-28T08:04:15.302Z,170
2018-03-28T08:04:55.800Z,170
2018-03-28T08:05:36.497Z,175
2018-03-28T08:06:17.060Z,180
2018-03-28T08:06:57.561Z,180
2018-03-28T08:07:38.064Z,180
2018-03-28T08:08:18.551Z,185
2018-03-28T08:08:59.039Z,185
2018-03-28T08:09:39.579Z,185
2018-03-28T08:10:20.048Z,185
2018-03-28T08:11:00.654Z,185
2018-03-28T08:11:41.370Z,185
2018-03-28T08:12:21.885Z,185
2018-03-28T08:13:02.458Z,190
2018-03-28T08:13:43.114Z,195
2018-03-28T08:14:24.224Z,205
2018-03-28T08:15:04.430Z,205
2018-03-28T08:15:44.916Z,210
2018-03-28T08:16:25.524Z,210
2018-03-28T08:17:05.997Z,205
2018-03-28T08:17:46.598Z,205
2018-03-28T08:18:27.062Z,210
2018-03-28T08:19:07.520Z,210
2018-03-28T08:19:47.991Z,205
2018-03-28T08:20:28.633Z,205
2018-03-28T08:21:09.204Z,200
2018-03-28T08:21:49.740Z,200
2018-03-28T08:22:30.238Z,195
2018-03-28T08:23:10.889Z,205
2018-03-28T08:23:51.349Z,205
2018-03-28T08:24:31.923Z,215
2018-03-28T08:25:12.410Z,220
2018-03-28T08:25:52.940Z,215
2018-03-28T08:26:33.395Z,220
2018-03-28T08:27:13.889Z,215
2018-03-28T08:27:54.370Z,205
2018-03-28T08:28:34.857Z,195
2018-03-28T08:29:15.564Z,185
2018-03-28T08:29:56.046Z,180
2018-03-28T08:30:36.496Z,180
2018-03-28T08:31:17.054Z,185
2018-03-28T08:31:57.534Z,180
2018-03-28T08:32:38.010Z,180
2018-03-28T08:33:18.545Z,170
2018-03-28T08:33:59.302Z,170
2018-03-28T08:34:39.848Z,175
2018-03-28T08:35:20.355Z,165
2018-03-28T08:36:00.901Z,160
2018-03-28T08:36:41.461Z,165
2018-03-28T08:37:21.928Z,175
2018-03-28T08:38:02.463Z,170
2018-03-28T08:38:42.946Z,175
2018-03-28T08:39:23.461Z,170
2018-03-28T08:40:04.045Z,165
2018-03-28T08:40:44.566Z,160
2018-03-28T08:41:25.139Z,155
2018-03-28T08:42:05.760Z,155
2018-03-28T08:42:46.635Z,160
2018-03-28T08:43:27.192Z,170
2018-03-28T08:44:07.696Z,190
2018-03-28T08:44:48.295Z,175
2018-03-28T08:45:29.092Z,175
2018-03-28T08:46:09.549Z,160
2018-03-28T08:46:50.078Z,160
2018-03-28T08:47:30.536Z,180
2018-03-28T08:48:11.063Z,190
2018-03-28T08:48:51.585Z,200
2018-03-28T08:49:32.350Z,200
2018-03-28T08:50:12.876Z,190
2018-03-28T08:50:53.729Z,180
2018-03-28T08:51:34.212Z,175
2018-03-28T08:52:14.847Z,180
2018-03-28T08:52:55.306Z,190
2018-03-28T08:53:35.833Z,185
2018-03-28T08:54:16.407Z,175
2018-03-28T08:54:56.797Z,170
2018-03-28T08:55:37.417Z,165
2018-03-28T08:56:17.842Z,160
2018-03-28T08:56:58.315Z,155
2018-03-28T08:57:38.858Z,145
2018-03-28T08:58:19.405Z,145
2018-03-28T08:59:00.129Z,145
2018-03-28T08:59:40.392Z,150
2018-03-28T09:00:20.876Z,155
2018-03-28T09:01:01.400Z,155
2018-03-28T09:01:41.857Z,145
2018-03-28T09:02:22.894Z,150
2018-03-28T09:03:03.383Z,165
2018-03-28T09:03:43.952Z,185
2018-03-28T09:04:24.423Z,210
2018-03-28T09:05:04.925Z,220
2018-03-28T09:05:45.469Z,230
2018-03-28T09:06:26.039Z,230
2018-03-28T09:07:06.528Z,225
2018-03-28T09:07:47.256Z,220
2018-03-28T09:08:27.729Z,220
2018-03-28T09:09:08.288Z,220
2018-03-28T09:09:48.778Z,220
2018-03-28T09:10:29.303Z,220
2018-03-28T09:11:09.840Z,220
2018-03-28T09:11:50.335Z,220
2018-03-28T09:12:30.855Z,215
2018-03-28T09:13:11.374Z,220
2018-03-28T09:13:51.835Z,225
2018-03-28T09:14:32.438Z,225
2018-03-28T09:15:13.075Z,220
2018-03-28T09:15:53.715Z,215
2018-03-28T09:18:12.441Z,205
2018-03-28T09:18:52.790Z,195
2018-03-28T09:19:33.292Z,195
2018-03-28T09:20:13.857Z,180
2018-03-28T09:20:54.367Z,175
2018-03-28T09:21:34.986Z,180
2018-03-28T09:22:15.396Z,175
2018-03-28T09:22:56.035Z,175
2018-03-28T09:23:36.462Z,185
2018-03-28T09:24:16.964Z,195
2018-03-28T09:24:57.580Z,195
2018-03-28T09:25:38.035Z,190
2018-03-28T09:26:18.543Z,195
2018-03-28T09:26:59.056Z,205
2018-03-28T09:27:39.540Z,205
2018-03-28T09:28:20.071Z,210
2018-03-28T09:29:00.677Z,205
2018-03-28T09:29:41.266Z,195
2018-03-28T09:30:21.723Z,185
2018-03-28T09:31:02.428Z,185
2018-03-28T09:31:42.699Z,190
2018-03-28T09:32:23.204Z,175
2018-03-28T09:33:04.154Z,160
2018-03-28T09:33:44.559Z,165
2018-03-28T09:34:25.078Z,180
2018-03-28T09:35:05.594Z,185
2018-03-28T09:35:46.068Z,170
2018-03-28T09:36:26.630Z,180
2018-03-28T09:37:07.173Z,190
2018-03-28T09:37:47.756Z,200
2018-03-28T09:38:28.220Z,205
2018-03-28T09:39:08.742Z,200
2018-03-28T09:39:49.269Z,195
2018-03-28T09:40:29.741Z,200
2018-03-28T09:41:10.247Z,200
2018-03-28T09:41:50.777Z,195
2018-03-28T09:42:31.274Z,170
2018-03-28T09:43:11.888Z,165
2018-03-28T09:43:52.361Z,170
2018-03-28T09:44:32.990Z,185
2018-03-28T09:45:13.431Z,205
2018-03-28T09:45:53.922Z,210
2018-03-28T09:46:34.403Z,200
2018-03-28T09:47:14.864Z,200
2018-03-28T09:47:55.441Z,195
2018-03-28T09:48:35.965Z,205
2018-03-28T09:49:16.465Z,215